Dover Air Force Base
KDOV : rendu visible

Aérodrome :











RETROUVEZ-NOUS SUR...

 
LOGIN :

S'inscrire | Disclaimer

   EN    FR    IT 

 









Légende :    VFR   VFR Marginal   IFR   IFR Intensif   IFR Très Intensif
Visi : 
Plafond : 
>= 8 km
>= 3000ft
5 à 8 km
1000 à 3000 ft
1500m à 5 km
500 à 1000 ft
800 à 1500m
200 à 500 ft
< 800m
< 200 ft
Symboles :   Orages  Brouillard  Fortes neiges  Fortes précipitations  Vent > 20 kt






- Altitude de l'aérodrome : 24 ft


KDOV - Dover Air Force Base

DERNIER METAR :
  • 200356Z AUTO 01004KT M M SCT060 SCT130 06/04 A2987 RMK AO2 SLP118 T00560042 RVRNO $

METARs EXPIRÉS :
  • 200256Z 00000KT 10SM BKN060 OVC160 07/05 A2987 RMK AO2A SLP118 T00690052 52006 $
  • 200156Z 00000KT 10SM BKN130 BKN160 07/05 A2986 RMK AO2A SLP115 T00670050 $

TAF TAF KDOV
Valide du 20 à 00h jusqu'au 21 à 06h UTC


200000Z 2000/2106 03006KT 9999 BKN040 OVC200 QNH2984INS
BECMG 2008/2009 35006KT 9999 BKN025 QNH2989INS
BECMG 2014/2015 32012G20KT 9999 BKN040 QNH2999INS
BECMG 2020/2021 32010G15KT 9999 BKN040 QNH3002INS
BECMG 2023/2024 32012KT 9999 BKN040 QNH3009INS TX11/2020Z TN03/2011Z



MET'MAP, la Météo Aéronautique d'un coup d'oeil ! - Copyright ORBIFLY Décembre 2007 - Disclaimer

ORBIFLY MET'MAP TEAM :

Programmation & Développement : Alexandra Zaïnal
Conception & Développement : Baudouin d'Aumeries
Co-Programmation & Développement : Marc-Olivier Méhu
Soutien technique & logistique : Manuel Goepfert

Contact : metmap@orbifly.com




SOURCES & CREDITS :

   NOAA       Earth
Advisory